createdAt,value
2019-03-13T00:00:43.962Z,1.30
2019-03-13T00:03:12.735Z,1.27
2019-03-13T00:05:41.523Z,1.40
2019-03-13T00:08:10.300Z,1.22
2019-03-13T00:10:39.113Z,1.27
2019-03-13T00:13:07.937Z,1.20
2019-03-13T00:15:36.767Z,1.50
2019-03-13T00:18:05.619Z,1.22
2019-03-13T00:20:34.354Z,1.30
2019-03-13T00:23:03.145Z,1.40
2019-03-13T00:25:31.968Z,1.60
2019-03-13T00:28:00.766Z,1.40
2019-03-13T00:30:29.710Z,1.22
2019-03-13T00:32:59.036Z,1.30
2019-03-13T00:35:28.189Z,1.20
2019-03-13T00:37:57.082Z,1.10
2019-03-13T00:40:26.229Z,1.05
2019-03-13T00:42:55.089Z,1.30
2019-03-13T00:45:24.574Z,1.42
2019-03-13T00:47:53.769Z,1.60
2019-03-13T00:50:24.623Z,1.40
2019-03-13T00:55:21.700Z,1.40
2019-03-13T00:57:50.544Z,1.02
2019-03-13T01:00:50.584Z,1.45
2019-03-13T01:03:36.484Z,1.37
2019-03-13T01:06:07.777Z,1.45
2019-03-13T01:08:36.567Z,1.13
2019-03-13T01:11:06.340Z,1.37
2019-03-13T01:13:35.148Z,1.60
2019-03-13T01:16:03.995Z,1.17
2019-03-13T01:18:32.848Z,1.42
2019-03-13T01:21:01.640Z,1.35
2019-03-13T01:23:31.282Z,1.42
2019-03-13T01:26:00.116Z,1.30
2019-03-13T01:28:29.632Z,1.30
2019-03-13T01:31:06.247Z,1.20
2019-03-13T01:33:35.082Z,1.50
2019-03-13T01:36:04.363Z,1.25
2019-03-13T01:38:33.656Z,1.50
2019-03-13T01:41:02.415Z,1.27
2019-03-13T01:43:31.523Z,1.32
2019-03-13T01:46:00.619Z,1.22
2019-03-13T01:48:29.738Z,1.17
2019-03-13T01:50:58.451Z,1.60
2019-03-13T01:53:27.701Z,1.10
2019-03-13T01:55:56.481Z,0.90
2019-03-13T01:58:25.552Z,1.07
2019-03-13T02:00:54.646Z,1.10
2019-03-13T02:03:23.742Z,1.07
2019-03-13T02:05:55.692Z,0.75
2019-03-13T02:08:24.432Z,1.00
2019-03-13T02:10:53.206Z,0.80
2019-03-13T02:13:22.008Z,0.80
2019-03-13T02:15:50.808Z,0.47
2019-03-13T02:18:19.620Z,0.60
2019-03-13T02:20:48.451Z,0.40
2019-03-13T02:23:17.619Z,0.50
2019-03-13T02:25:46.709Z,0.50
2019-03-13T02:28:15.443Z,0.60
2019-03-13T02:30:44.835Z,0.60
2019-03-13T02:33:13.632Z,0.30
2019-03-13T02:35:42.439Z,0.30
2019-03-13T02:38:11.213Z,0.30
2019-03-13T02:40:40.223Z,0.50
2019-03-13T02:43:08.988Z,0.23
2019-03-13T02:45:38.439Z,0.30
2019-03-13T02:48:07.539Z,0.30
2019-03-13T02:50:36.754Z,0.20
2019-03-13T02:53:05.481Z,0.25
2019-03-13T02:55:34.244Z,0.33
2019-03-13T02:58:03.047Z,0.20
2019-03-13T03:00:55.834Z,0.30
2019-03-13T03:03:33.605Z,0.27
2019-03-13T03:06:02.590Z,0.30
2019-03-13T03:08:32.393Z,0.50
2019-03-13T03:11:01.174Z,0.42
2019-03-13T03:13:31.506Z,0.30
2019-03-13T03:16:00.459Z,0.60
2019-03-13T03:18:31.310Z,0.40
2019-03-13T03:21:02.566Z,0.30
2019-03-13T03:23:31.750Z,0.50
2019-03-13T03:26:03.633Z,0.30
2019-03-13T03:28:32.433Z,0.40
2019-03-13T03:31:01.502Z,0.53
2019-03-13T03:33:31.653Z,0.30
2019-03-13T03:36:00.616Z,0.60
2019-03-13T03:38:29.413Z,0.25
2019-03-13T03:40:58.209Z,0.30
2019-03-13T03:43:39.353Z,0.30
2019-03-13T03:45:56.805Z,0.35
2019-03-13T03:48:25.600Z,0.30
2019-03-13T03:50:54.388Z,0.30
2019-03-13T03:53:23.158Z,0.40
2019-03-13T03:55:51.940Z,0.30
2019-03-13T03:58:20.725Z,0.40
2019-03-13T04:00:49.904Z,0.40
2019-03-13T04:03:18.735Z,0.30
2019-03-13T04:05:47.494Z,0.40
2019-03-13T04:08:16.977Z,0.28
2019-03-13T04:10:50.021Z,0.33
2019-03-13T04:13:20.214Z,0.30
2019-03-13T04:15:49.010Z,0.30
2019-03-13T04:18:17.825Z,0.30
2019-03-13T04:20:46.975Z,0.30
2019-03-13T04:23:15.786Z,0.30
2019-03-13T04:25:44.585Z,0.40
2019-03-13T04:28:13.359Z,0.30
2019-03-13T04:30:42.149Z,0.40
2019-03-13T04:33:12.126Z,0.20
2019-03-13T04:35:40.954Z,0.20
2019-03-13T04:38:13.726Z,0.37
2019-03-13T04:40:42.516Z,0.30
2019-03-13T04:43:11.310Z,0.30
2019-03-13T04:45:40.119Z,0.30
2019-03-13T04:48:10.934Z,0.20
2019-03-13T04:53:08.823Z,0.40
2019-03-13T04:55:37.612Z,0.30
2019-03-13T04:58:06.336Z,0.40
2019-03-13T05:00:35.076Z,0.35
2019-03-13T05:03:03.877Z,0.35
2019-03-13T05:05:41.452Z,0.30
2019-03-13T05:08:12.488Z,0.40
2019-03-13T05:10:41.539Z,0.50
2019-03-13T05:13:10.380Z,0.40
2019-03-13T05:15:39.341Z,0.50
2019-03-13T05:18:08.427Z,0.40
2019-03-13T05:20:37.725Z,0.78
2019-03-13T05:23:06.459Z,0.50
2019-03-13T05:25:35.234Z,0.70
2019-03-13T05:28:04.091Z,0.70
2019-03-13T05:30:32.809Z,0.78
2019-03-13T05:33:01.818Z,0.90
2019-03-13T05:35:30.593Z,0.90
2019-03-13T05:37:59.387Z,1.00
2019-03-13T05:40:28.458Z,0.98
2019-03-13T05:42:57.283Z,1.20
2019-03-13T05:45:26.052Z,1.22
2019-03-13T05:47:54.846Z,1.12
2019-03-13T05:50:26.723Z,1.10
2019-03-13T05:52:55.891Z,1.10
2019-03-13T05:55:24.679Z,1.15
2019-03-13T05:57:56.860Z,1.00
2019-03-13T06:00:25.576Z,1.00
2019-03-13T06:02:54.363Z,1.30
2019-03-13T06:05:24.160Z,1.20
2019-03-13T06:07:52.938Z,1.27
2019-03-13T06:10:21.706Z,1.45
2019-03-13T06:12:50.879Z,1.02
2019-03-13T06:15:19.794Z,1.50
2019-03-13T06:17:52.761Z,1.50
2019-03-13T06:20:21.576Z,1.10
2019-03-13T06:22:50.333Z,1.40
2019-03-13T06:25:20.101Z,2.17
2019-03-13T06:27:49.180Z,1.30
2019-03-13T06:30:17.967Z,1.05
2019-03-13T06:32:46.736Z,1.20
2019-03-13T06:35:15.613Z,1.40
2019-03-13T06:37:45.337Z,1.10
2019-03-13T06:40:17.829Z,1.35
2019-03-13T06:42:46.585Z,1.05
2019-03-13T06:45:15.692Z,1.20
2019-03-13T06:47:45.309Z,0.95
2019-03-13T06:50:16.022Z,0.90
2019-03-13T06:52:45.053Z,0.90
2019-03-13T06:55:14.851Z,1.27
2019-03-13T06:57:43.614Z,1.45
2019-03-13T07:00:35.053Z,1.47
2019-03-13T07:03:19.729Z,1.42
2019-03-13T07:06:08.996Z,1.30
2019-03-13T07:08:53.140Z,1.50
2019-03-13T07:11:39.669Z,1.10
2019-03-13T07:14:27.631Z,1.42
2019-03-13T07:17:15.297Z,1.50
2019-03-13T07:19:57.279Z,1.30
2019-03-13T07:22:37.881Z,1.20
2019-03-13T07:25:17.654Z,1.25
2019-03-13T07:28:03.710Z,1.10
2019-03-13T07:30:46.553Z,1.20
2019-03-13T07:33:29.680Z,1.35
2019-03-13T07:36:11.055Z,1.30
2019-03-13T07:39:06.222Z,1.07
2019-03-13T07:41:48.167Z,0.80
2019-03-13T07:44:33.644Z,0.90
2019-03-13T07:47:10.523Z,1.00
2019-03-13T07:49:54.133Z,0.80
2019-03-13T07:52:36.546Z,0.80
2019-03-13T07:55:12.806Z,0.80
2019-03-13T07:58:00.739Z,1.05
2019-03-13T08:00:46.264Z,0.78
2019-03-13T08:03:24.235Z,0.80
2019-03-13T08:06:11.016Z,0.70
2019-03-13T08:08:59.054Z,0.70
2019-03-13T08:11:44.202Z,0.80
2019-03-13T08:14:36.155Z,0.60
2019-03-13T08:17:24.198Z,0.70
2019-03-13T08:20:18.004Z,0.68
2019-03-13T08:23:24.239Z,0.68
2019-03-13T08:26:04.846Z,0.70
2019-03-13T08:28:42.830Z,0.72
2019-03-13T08:31:17.867Z,0.60
2019-03-13T08:34:10.483Z,0.70
2019-03-13T08:36:46.127Z,0.60
2019-03-13T08:39:34.600Z,0.45
2019-03-13T08:42:26.241Z,0.45
2019-03-13T08:45:10.140Z,0.78
2019-03-13T08:48:04.150Z,0.70
2019-03-13T08:50:38.984Z,0.50
2019-03-13T08:53:15.232Z,0.30
2019-03-13T08:56:02.134Z,0.60
2019-03-13T08:58:47.108Z,0.45
2019-03-13T09:01:37.915Z,0.50
2019-03-13T09:04:25.860Z,0.73
2019-03-13T09:07:04.326Z,0.53
2019-03-13T09:09:49.647Z,1.00
2019-03-13T09:12:40.443Z,0.70
2019-03-13T09:15:31.202Z,0.60
2019-03-13T09:18:15.178Z,0.40
2019-03-13T09:20:53.106Z,0.60
2019-03-13T09:23:39.886Z,0.50
2019-03-13T09:26:18.212Z,0.60
2019-03-13T09:28:59.606Z,0.40
2019-03-13T09:31:47.859Z,0.40
2019-03-13T09:34:21.653Z,0.53
2019-03-13T09:37:12.769Z,0.70
2019-03-13T09:39:59.468Z,0.55
2019-03-13T09:42:50.726Z,0.57
2019-03-13T09:45:41.093Z,0.40
2019-03-13T09:48:29.073Z,0.50
2019-03-13T09:51:04.537Z,0.40
2019-03-13T09:53:42.179Z,0.40
2019-03-13T09:56:19.563Z,0.40
2019-03-13T09:59:22.646Z,0.30
2019-03-13T10:02:22.893Z,0.40
2019-03-13T10:05:07.124Z,0.68
2019-03-13T10:08:01.031Z,0.45
2019-03-13T10:10:49.093Z,0.35
2019-03-13T10:13:46.584Z,0.53
2019-03-13T10:16:30.545Z,0.30
2019-03-13T10:19:14.781Z,0.50
2019-03-13T10:21:50.127Z,0.50
2019-03-13T10:24:40.934Z,0.50
2019-03-13T10:27:28.449Z,0.47
2019-03-13T10:30:03.587Z,0.50
2019-03-13T10:32:47.848Z,0.55
2019-03-13T10:35:35.125Z,0.40
2019-03-13T10:38:24.089Z,0.45
2019-03-13T10:41:12.125Z,0.65
2019-03-13T10:43:58.539Z,0.53
2019-03-13T10:46:37.303Z,0.50
2019-03-13T10:49:34.624Z,0.50
2019-03-13T10:52:28.526Z,0.70
2019-03-13T10:55:19.248Z,0.50
2019-03-13T10:58:25.191Z,1.20
2019-03-13T11:01:13.488Z,0.80
2019-03-13T11:03:55.035Z,0.70
2019-03-13T11:09:45.784Z,0.68
2019-03-13T11:12:27.772Z,0.50
2019-03-13T11:15:14.145Z,0.60
2019-03-13T11:18:08.806Z,0.55
2019-03-13T11:20:49.495Z,0.60
2019-03-13T11:23:31.382Z,0.40
2019-03-13T11:26:10.709Z,0.70
2019-03-13T11:28:58.671Z,0.60
2019-03-13T11:31:37.994Z,0.30
2019-03-13T11:34:20.498Z,0.40
2019-03-13T11:36:56.980Z,0.70
2019-03-13T11:39:35.070Z,0.50
2019-03-13T11:42:26.028Z,0.60
2019-03-13T11:45:32.312Z,0.53
2019-03-13T11:48:27.895Z,0.80
2019-03-13T11:51:14.470Z,0.68
2019-03-13T11:54:03.822Z,0.45
2019-03-13T11:56:47.388Z,0.55
2019-03-13T11:59:24.251Z,0.60
2019-03-13T12:02:04.820Z,0.70
2019-03-13T12:04:51.309Z,0.70
2019-03-13T12:07:51.493Z,1.05
2019-03-13T12:10:39.511Z,0.80
2019-03-13T12:13:33.243Z,0.65
2019-03-13T12:16:12.486Z,0.70
2019-03-13T12:18:59.217Z,0.50
2019-03-13T12:21:34.728Z,0.88
2019-03-13T12:24:25.456Z,0.82
2019-03-13T12:27:16.303Z,0.70
2019-03-13T12:30:00.736Z,0.70
2019-03-13T12:32:55.097Z,0.70
2019-03-13T12:35:41.111Z,0.65
2019-03-13T12:38:16.337Z,0.45
2019-03-13T12:41:06.512Z,0.80
2019-03-13T12:43:46.671Z,0.90
2019-03-13T12:46:30.115Z,0.50
2019-03-13T12:49:10.566Z,0.90
2019-03-13T12:52:01.369Z,0.70
2019-03-13T12:54:41.728Z,0.90
2019-03-13T12:57:32.306Z,0.60
2019-03-13T13:00:12.304Z,0.83
2019-03-13T13:03:05.921Z,0.70
2019-03-13T13:05:52.049Z,0.80
2019-03-13T13:08:29.121Z,0.93
2019-03-13T13:11:08.811Z,0.80
2019-03-13T13:14:12.251Z,0.90
2019-03-13T13:17:12.333Z,0.90
2019-03-13T13:19:41.736Z,0.60
2019-03-13T13:22:11.182Z,1.20
2019-03-13T13:24:40.235Z,0.60
2019-03-13T13:27:09.034Z,0.70
2019-03-13T13:29:37.905Z,0.70
2019-03-13T13:32:06.996Z,0.62
2019-03-13T13:34:36.321Z,0.30
2019-03-13T13:37:06.028Z,0.62
2019-03-13T13:39:34.848Z,0.60
2019-03-13T13:42:03.892Z,0.60
2019-03-13T13:44:34.676Z,0.80
2019-03-13T13:47:03.455Z,0.83
2019-03-13T13:49:32.232Z,0.78
2019-03-13T13:52:01.256Z,0.40
2019-03-13T13:54:30.014Z,0.60
2019-03-13T13:56:58.837Z,0.30
2019-03-13T13:59:28.343Z,0.42
2019-03-13T14:01:57.107Z,0.57
2019-03-13T14:04:25.889Z,0.37
2019-03-13T14:06:54.841Z,0.50
2019-03-13T14:09:23.663Z,0.47
2019-03-13T14:11:52.461Z,0.50
2019-03-13T14:14:21.236Z,0.40
2019-03-13T14:16:50.061Z,0.88
2019-03-13T14:19:18.790Z,0.60
2019-03-13T14:21:48.090Z,0.70
2019-03-13T14:24:17.614Z,0.60
2019-03-13T14:26:46.181Z,0.70
2019-03-13T14:29:14.878Z,0.53
2019-03-13T14:31:43.685Z,0.80
2019-03-13T14:34:12.470Z,0.70
2019-03-13T14:36:41.259Z,0.80
2019-03-13T14:39:10.029Z,0.65
2019-03-13T14:41:39.760Z,0.82
2019-03-13T14:44:08.523Z,0.65
2019-03-13T14:46:38.267Z,1.40
2019-03-13T14:49:07.030Z,0.50
2019-03-13T14:51:37.802Z,0.62
2019-03-13T14:54:06.490Z,0.60
2019-03-13T14:56:35.249Z,0.50
2019-03-13T14:59:04.041Z,0.50
2019-03-13T15:01:33.855Z,1.00
2019-03-13T15:04:02.632Z,0.70
2019-03-13T15:06:33.363Z,1.27
2019-03-13T15:09:02.156Z,0.50
2019-03-13T15:11:30.953Z,0.60
2019-03-13T15:13:59.728Z,0.72
2019-03-13T15:16:29.623Z,0.85
2019-03-13T15:18:58.787Z,0.65
2019-03-13T15:21:28.851Z,0.90
2019-03-13T15:23:58.675Z,0.60
2019-03-13T15:26:27.469Z,0.90
2019-03-13T15:28:56.251Z,0.65
2019-03-13T15:31:25.040Z,0.80
2019-03-13T15:33:53.827Z,0.93
2019-03-13T15:36:22.594Z,0.53
2019-03-13T15:38:51.456Z,0.80
2019-03-13T15:41:20.179Z,1.05
2019-03-13T15:43:48.987Z,1.00
2019-03-13T15:46:17.787Z,0.65
2019-03-13T15:48:46.875Z,1.05
2019-03-13T15:51:16.111Z,0.80
2019-03-13T15:53:44.807Z,0.70
2019-03-13T15:56:13.517Z,0.50
2019-03-13T15:58:42.305Z,1.00
2019-03-13T16:01:11.093Z,1.02
2019-03-13T16:03:40.905Z,1.73
2019-03-13T16:06:10.590Z,1.02
2019-03-13T16:08:39.402Z,1.10
2019-03-13T16:11:08.191Z,0.75
2019-03-13T16:13:37.374Z,0.93
2019-03-13T16:16:07.610Z,1.20
2019-03-13T16:18:36.909Z,1.02
2019-03-13T16:21:05.710Z,1.00
2019-03-13T16:23:34.495Z,0.95
2019-03-13T16:26:03.378Z,0.90
2019-03-13T16:28:32.455Z,0.90
2019-03-13T16:31:01.565Z,1.00
2019-03-13T16:33:30.423Z,1.02
2019-03-13T16:35:59.141Z,0.90
2019-03-13T16:38:28.675Z,0.85
2019-03-13T16:40:57.726Z,0.90
2019-03-13T16:43:27.155Z,0.80
2019-03-13T16:45:55.929Z,0.88
2019-03-13T16:48:25.004Z,0.88
2019-03-13T16:50:53.865Z,1.00
2019-03-13T16:53:22.718Z,0.90
2019-03-13T16:55:51.507Z,0.97
2019-03-13T16:58:20.577Z,1.20
2019-03-13T17:00:50.649Z,1.10
2019-03-13T17:03:18.173Z,1.00
2019-03-13T17:05:46.997Z,1.55
2019-03-13T17:08:15.774Z,0.80
2019-03-13T17:10:44.613Z,1.12
2019-03-13T17:13:13.425Z,0.90
2019-03-13T17:15:42.202Z,1.00
2019-03-13T17:18:13.229Z,1.20
2019-03-13T17:20:42.045Z,0.72
2019-03-13T17:23:13.895Z,0.88
2019-03-13T17:25:42.690Z,1.35
2019-03-13T17:28:11.465Z,1.52
2019-03-13T17:30:41.074Z,0.90
2019-03-13T17:33:10.891Z,1.27
2019-03-13T17:35:40.717Z,1.82
2019-03-13T17:38:10.804Z,0.93
2019-03-13T17:40:39.678Z,1.00
2019-03-13T17:43:08.422Z,1.00
2019-03-13T17:45:37.267Z,1.65
2019-03-13T17:48:07.123Z,1.92
2019-03-13T17:50:35.869Z,1.10
2019-03-13T17:53:04.779Z,2.02
2019-03-13T17:55:33.562Z,1.70
2019-03-13T17:58:03.407Z,1.52
2019-03-13T18:00:36.046Z,1.82
2019-03-13T18:03:05.263Z,1.30
2019-03-13T18:05:34.023Z,1.25
2019-03-13T18:08:02.880Z,0.90
2019-03-13T18:10:32.930Z,1.05
2019-03-13T18:13:01.746Z,2.27
2019-03-13T18:15:30.484Z,1.27
2019-03-13T18:17:59.209Z,0.90
2019-03-13T18:20:28.388Z,1.25
2019-03-13T18:23:00.284Z,1.55
2019-03-13T18:25:29.051Z,1.20
2019-03-13T18:27:58.169Z,1.00
2019-03-13T18:30:26.960Z,1.55
2019-03-13T18:32:55.736Z,1.35
2019-03-13T18:35:24.483Z,1.30
2019-03-13T18:37:53.335Z,1.17
2019-03-13T18:40:22.193Z,0.82
2019-03-13T18:42:51.154Z,1.13
2019-03-13T18:45:22.190Z,1.30
2019-03-13T18:47:54.290Z,1.70
2019-03-13T18:50:25.535Z,1.62
2019-03-13T18:52:56.332Z,1.30
2019-03-13T18:55:26.228Z,1.10
2019-03-13T18:57:54.993Z,1.32
2019-03-13T19:00:28.084Z,1.22
2019-03-13T19:02:56.841Z,1.37
2019-03-13T19:05:25.749Z,1.60
2019-03-13T19:07:54.483Z,1.30
2019-03-13T19:10:23.399Z,1.60
2019-03-13T19:12:58.483Z,1.20
2019-03-13T19:15:29.346Z,1.20
2019-03-13T19:20:26.334Z,1.25
2019-03-13T19:22:55.505Z,1.30
2019-03-13T19:25:24.641Z,1.20
2019-03-13T19:27:53.414Z,0.93
2019-03-13T19:30:24.263Z,1.52
2019-03-13T19:32:54.070Z,1.67
2019-03-13T19:35:23.152Z,1.60
2019-03-13T19:37:51.971Z,1.15
2019-03-13T19:40:20.854Z,1.42
2019-03-13T19:42:49.519Z,1.98
2019-03-13T19:45:26.824Z,1.13
2019-03-13T19:47:57.455Z,1.55
2019-03-13T19:50:28.173Z,1.40
2019-03-13T19:52:54.908Z,1.00
2019-03-13T19:55:24.102Z,1.32
2019-03-13T19:57:52.911Z,1.07
2019-03-13T20:00:22.747Z,1.37
2019-03-13T20:02:59.949Z,2.12
2019-03-13T20:05:20.335Z,1.42
2019-03-13T20:07:49.812Z,1.57
2019-03-13T20:10:21.339Z,1.50
2019-03-13T20:12:50.138Z,2.00
2019-03-13T20:15:19.722Z,1.70
2019-03-13T20:17:48.496Z,1.43
2019-03-13T20:20:18.132Z,3.33
2019-03-13T20:22:49.561Z,1.67
2019-03-13T20:25:18.607Z,1.60
2019-03-13T20:27:47.992Z,1.57
2019-03-13T20:30:18.380Z,1.55
2019-03-13T20:32:47.171Z,1.63
2019-03-13T20:35:15.972Z,2.02
2019-03-13T20:37:44.831Z,1.30
2019-03-13T20:40:18.093Z,1.17
2019-03-13T20:42:46.878Z,1.90
2019-03-13T20:45:17.713Z,1.50
2019-03-13T20:47:46.540Z,1.47
2019-03-13T20:50:15.291Z,1.70
2019-03-13T20:52:45.727Z,1.60
2019-03-13T20:55:13.504Z,1.40
2019-03-13T20:57:42.232Z,1.37
2019-03-13T21:00:13.398Z,1.37
2019-03-13T21:02:42.100Z,1.50
2019-03-13T21:05:10.890Z,1.57
2019-03-13T21:07:39.659Z,1.37
2019-03-13T21:10:09.230Z,1.57
2019-03-13T21:12:38.873Z,1.45
2019-03-13T21:15:08.382Z,1.15
2019-03-13T21:17:38.060Z,1.30
2019-03-13T21:20:07.785Z,1.30
2019-03-13T21:22:36.856Z,1.40
2019-03-13T21:25:06.700Z,1.12
2019-03-13T21:27:35.674Z,1.27
2019-03-13T21:30:05.364Z,1.42
2019-03-13T21:32:34.182Z,0.98
2019-03-13T21:35:03.080Z,1.12
2019-03-13T21:37:31.779Z,1.07
2019-03-13T21:40:06.656Z,1.30
2019-03-13T21:42:36.077Z,1.22
2019-03-13T21:45:04.895Z,1.55
2019-03-13T21:47:33.696Z,1.02
2019-03-13T21:50:02.610Z,0.90
2019-03-13T21:52:33.790Z,1.40
2019-03-13T21:55:02.622Z,1.22
2019-03-13T21:57:31.378Z,1.37
2019-03-13T22:00:00.367Z,1.85
2019-03-13T22:02:33.895Z,1.30
2019-03-13T22:04:57.747Z,1.30
2019-03-13T22:07:32.397Z,2.73
2019-03-13T22:29:00.664Z,2.83
2019-03-13T23:00:34.219Z,4.47
2019-03-13T23:03:03.039Z,4.92
2019-03-13T23:05:31.859Z,5.55
2019-03-13T23:08:00.617Z,10.15
2019-03-13T23:10:30.913Z,4.55
2019-03-13T23:13:00.638Z,2.02
2019-03-13T23:15:29.426Z,1.30
2019-03-13T23:17:58.225Z,1.02
2019-03-13T23:20:27.032Z,1.05
2019-03-13T23:22:56.332Z,1.10
2019-03-13T23:25:25.838Z,0.93
2019-03-13T23:27:54.583Z,1.20
2019-03-13T23:30:23.393Z,0.80
2019-03-13T23:32:52.274Z,0.80
2019-03-13T23:35:22.920Z,0.68
2019-03-13T23:37:51.690Z,0.70
2019-03-13T23:40:20.494Z,0.70
2019-03-13T23:42:49.255Z,0.60
2019-03-13T23:45:18.075Z,0.60
2019-03-13T23:48:06.211Z,0.53
2019-03-13T23:50:36.937Z,0.40
2019-03-13T23:53:06.000Z,0.60
2019-03-13T23:55:34.719Z,0.93
2019-03-13T23:58:03.523Z,0.68
